sensor_id;sensor_type;location;lat;lon;timestamp;temperature;humidity
65972;SHT31;52726;48.852;9.152;2022-12-07T00:01:26;2.91;96.41
65972;SHT31;52726;48.852;9.152;2022-12-07T00:03:53;2.90;96.44
65972;SHT31;52726;48.852;9.152;2022-12-07T00:06:20;2.90;96.62
65972;SHT31;52726;48.852;9.152;2022-12-07T00:08:46;2.91;96.70
65972;SHT31;52726;48.852;9.152;2022-12-07T00:11:14;2.90;96.64
65972;SHT31;52726;48.852;9.152;2022-12-07T00:13:40;2.90;96.66
65972;SHT31;52726;48.852;9.152;2022-12-07T00:16:08;2.90;96.43
65972;SHT31;52726;48.852;9.152;2022-12-07T00:18:34;2.87;96.09
65972;SHT31;52726;48.852;9.152;2022-12-07T00:21:08;2.84;96.17
65972;SHT31;52726;48.852;9.152;2022-12-07T00:23:34;2.86;96.29
65972;SHT31;52726;48.852;9.152;2022-12-07T00:26:16;2.81;96.10
65972;SHT31;52726;48.852;9.152;2022-12-07T00:28:50;2.84;96.00
65972;SHT31;52726;48.852;9.152;2022-12-07T00:31:18;2.81;95.91
65972;SHT31;52726;48.852;9.152;2022-12-07T00:33:44;2.81;95.92
65972;SHT31;52726;48.852;9.152;2022-12-07T00:36:13;2.79;95.66
65972;SHT31;52726;48.852;9.152;2022-12-07T00:38:39;2.77;95.80
65972;SHT31;52726;48.852;9.152;2022-12-07T00:41:15;2.77;95.74
65972;SHT31;52726;48.852;9.152;2022-12-07T00:43:42;2.80;95.88
65972;SHT31;52726;48.852;9.152;2022-12-07T00:46:08;2.75;95.73
65972;SHT31;52726;48.852;9.152;2022-12-07T00:48:34;2.70;95.81
65972;SHT31;52726;48.852;9.152;2022-12-07T00:51:00;2.70;95.55
65972;SHT31;52726;48.852;9.152;2022-12-07T00:53:26;2.67;95.31
65972;SHT31;52726;48.852;9.152;2022-12-07T00:55:52;2.67;95.27
65972;SHT31;52726;48.852;9.152;2022-12-07T00:58:18;2.64;95.30
65972;SHT31;52726;48.852;9.152;2022-12-07T01:00:43;2.64;95.16
65972;SHT31;52726;48.852;9.152;2022-12-07T01:03:11;2.63;95.31
65972;SHT31;52726;48.852;9.152;2022-12-07T01:05:37;2.62;94.87
65972;SHT31;52726;48.852;9.152;2022-12-07T01:08:02;2.59;94.78
65972;SHT31;52726;48.852;9.152;2022-12-07T01:10:28;2.59;94.91
65972;SHT31;52726;48.852;9.152;2022-12-07T01:12:56;2.60;95.02
65972;SHT31;52726;48.852;9.152;2022-12-07T01:15:21;2.57;95.02
65972;SHT31;52726;48.852;9.152;2022-12-07T01:17:47;2.60;95.27
65972;SHT31;52726;48.852;9.152;2022-12-07T01:20:12;2.60;95.24
65972;SHT31;52726;48.852;9.152;2022-12-07T01:22:39;2.57;94.89
65972;SHT31;52726;48.852;9.152;2022-12-07T01:25:05;2.59;95.03
65972;SHT31;52726;48.852;9.152;2022-12-07T01:27:32;2.57;95.07
65972;SHT31;52726;48.852;9.152;2022-12-07T01:29:58;2.57;95.05
65972;SHT31;52726;48.852;9.152;2022-12-07T01:32:23;2.56;95.24
65972;SHT31;52726;48.852;9.152;2022-12-07T01:34:48;2.57;95.23
65972;SHT31;52726;48.852;9.152;2022-12-07T01:37:14;2.56;95.39
65972;SHT31;52726;48.852;9.152;2022-12-07T01:39:39;2.59;95.49
65972;SHT31;52726;48.852;9.152;2022-12-07T01:42:11;2.56;95.56
65972;SHT31;52726;48.852;9.152;2022-12-07T01:47:41;2.57;95.84
65972;SHT31;52726;48.852;9.152;2022-12-07T01:50:08;2.59;95.84
65972;SHT31;52726;48.852;9.152;2022-12-07T01:52:35;2.57;95.92
65972;SHT31;52726;48.852;9.152;2022-12-07T01:55:08;2.59;96.06
65972;SHT31;52726;48.852;9.152;2022-12-07T01:57:39;2.57;96.03
65972;SHT31;52726;48.852;9.152;2022-12-07T02:00:06;2.59;96.11
65972;SHT31;52726;48.852;9.152;2022-12-07T02:02:34;2.62;96.14
65972;SHT31;52726;48.852;9.152;2022-12-07T02:05:02;2.59;96.19
65972;SHT31;52726;48.852;9.152;2022-12-07T02:07:29;2.59;96.30
65972;SHT31;52726;48.852;9.152;2022-12-07T02:09:54;2.60;96.34
65972;SHT31;52726;48.852;9.152;2022-12-07T02:12:21;2.60;96.28
65972;SHT31;52726;48.852;9.152;2022-12-07T02:14:48;2.60;96.34
65972;SHT31;52726;48.852;9.152;2022-12-07T02:17:27;2.63;96.32
65972;SHT31;52726;48.852;9.152;2022-12-07T02:22:53;2.60;96.10
65972;SHT31;52726;48.852;9.152;2022-12-07T02:28:28;2.57;96.14
65972;SHT31;52726;48.852;9.152;2022-12-07T02:30:55;2.56;96.15
65972;SHT31;52726;48.852;9.152;2022-12-07T02:33:41;2.57;96.19
65972;SHT31;52726;48.852;9.152;2022-12-07T02:36:14;2.54;96.15
65972;SHT31;52726;48.852;9.152;2022-12-07T02:41:26;2.53;96.23
65972;SHT31;52726;48.852;9.152;2022-12-07T02:44:14;2.52;96.09
65972;SHT31;52726;48.852;9.152;2022-12-07T02:46:51;2.52;96.23
65972;SHT31;52726;48.852;9.152;2022-12-07T02:49:18;2.53;96.21
65972;SHT31;52726;48.852;9.152;2022-12-07T02:51:46;2.53;96.29
65972;SHT31;52726;48.852;9.152;2022-12-07T02:54:17;2.54;96.25
65972;SHT31;52726;48.852;9.152;2022-12-07T02:56:49;2.50;96.26
65972;SHT31;52726;48.852;9.152;2022-12-07T03:07:18;2.50;96.36
65972;SHT31;52726;48.852;9.152;2022-12-07T03:09:59;2.50;96.24
65972;SHT31;52726;48.852;9.152;2022-12-07T03:12:44;2.52;96.19
65972;SHT31;52726;48.852;9.152;2022-12-07T03:15:14;2.52;96.19
65972;SHT31;52726;48.852;9.152;2022-12-07T03:17:41;2.50;96.27
65972;SHT31;52726;48.852;9.152;2022-12-07T03:22:38;2.48;95.92
65972;SHT31;52726;48.852;9.152;2022-12-07T03:25:09;2.48;95.86
65972;SHT31;52726;48.852;9.152;2022-12-07T03:27:43;2.46;95.96
65972;SHT31;52726;48.852;9.152;2022-12-07T03:30:14;2.45;95.56
65972;SHT31;52726;48.852;9.152;2022-12-07T03:32:44;2.42;95.50
65972;SHT31;52726;48.852;9.152;2022-12-07T03:35:30;2.39;95.64
65972;SHT31;52726;48.852;9.152;2022-12-07T03:37:59;2.36;95.57
65972;SHT31;52726;48.852;9.152;2022-12-07T03:42:51;2.32;95.46
65972;SHT31;52726;48.852;9.152;2022-12-07T03:45:17;2.35;95.29
65972;SHT31;52726;48.852;9.152;2022-12-07T03:47:49;2.29;95.18
65972;SHT31;52726;48.852;9.152;2022-12-07T03:50:25;2.31;95.04
65972;SHT31;52726;48.852;9.152;2022-12-07T03:52:55;2.26;94.90
65972;SHT31;52726;48.852;9.152;2022-12-07T03:55:28;2.24;94.99
65972;SHT31;52726;48.852;9.152;2022-12-07T03:58:02;2.22;95.02
65972;SHT31;52726;48.852;9.152;2022-12-07T04:00:28;2.22;95.00
65972;SHT31;52726;48.852;9.152;2022-12-07T04:02:54;2.17;95.05
65972;SHT31;52726;48.852;9.152;2022-12-07T04:05:20;2.15;94.94
65972;SHT31;52726;48.852;9.152;2022-12-07T04:07:45;2.05;95.02
65972;SHT31;52726;48.852;9.152;2022-12-07T04:10:11;2.01;95.24
65972;SHT31;52726;48.852;9.152;2022-12-07T04:12:37;2.01;95.30
65972;SHT31;52726;48.852;9.152;2022-12-07T04:15:03;2.02;95.16
65972;SHT31;52726;48.852;9.152;2022-12-07T04:17:28;2.00;95.17
65972;SHT31;52726;48.852;9.152;2022-12-07T04:19:54;2.01;95.01
65972;SHT31;52726;48.852;9.152;2022-12-07T04:22:19;2.00;95.04
65972;SHT31;52726;48.852;9.152;2022-12-07T04:24:45;1.98;94.61
65972;SHT31;52726;48.852;9.152;2022-12-07T04:27:10;2.00;94.57
65972;SHT31;52726;48.852;9.152;2022-12-07T04:29:35;2.04;94.16
65972;SHT31;52726;48.852;9.152;2022-12-07T04:32:01;2.07;93.92
65972;SHT31;52726;48.852;9.152;2022-12-07T04:34:26;2.12;93.60
65972;SHT31;52726;48.852;9.152;2022-12-07T04:36:52;2.14;93.09
65972;SHT31;52726;48.852;9.152;2022-12-07T04:39:23;2.15;92.33
65972;SHT31;52726;48.852;9.152;2022-12-07T04:41:49;2.21;92.41
65972;SHT31;52726;48.852;9.152;2022-12-07T04:44:15;2.22;91.27
65972;SHT31;52726;48.852;9.152;2022-12-07T04:46:41;2.24;91.09
65972;SHT31;52726;48.852;9.152;2022-12-07T04:49:07;2.21;90.97
65972;SHT31;52726;48.852;9.152;2022-12-07T04:51:33;2.17;90.85
65972;SHT31;52726;48.852;9.152;2022-12-07T04:53:58;2.21;90.46
65972;SHT31;52726;48.852;9.152;2022-12-07T04:56:24;2.25;89.51
65972;SHT31;52726;48.852;9.152;2022-12-07T04:58:52;2.26;89.82
65972;SHT31;52726;48.852;9.152;2022-12-07T05:01:18;2.29;89.04
65972;SHT31;52726;48.852;9.152;2022-12-07T05:03:44;2.32;89.30
65972;SHT31;52726;48.852;9.152;2022-12-07T05:06:10;2.24;91.10
65972;SHT31;52726;48.852;9.152;2022-12-07T05:08:36;2.17;92.33
65972;SHT31;52726;48.852;9.152;2022-12-07T05:11:01;2.10;92.80
65972;SHT31;52726;48.852;9.152;2022-12-07T05:13:27;2.04;92.43
65972;SHT31;52726;48.852;9.152;2022-12-07T05:15:52;2.01;92.43
65972;SHT31;52726;48.852;9.152;2022-12-07T05:18:18;1.94;92.84
65972;SHT31;52726;48.852;9.152;2022-12-07T05:20:44;1.81;93.14
65972;SHT31;52726;48.852;9.152;2022-12-07T05:23:09;1.74;93.66
65972;SHT31;52726;48.852;9.152;2022-12-07T05:25:35;1.66;94.01
65972;SHT31;52726;48.852;9.152;2022-12-07T05:28:01;1.64;94.30
65972;SHT31;52726;48.852;9.152;2022-12-07T05:30:27;1.63;94.68
65972;SHT31;52726;48.852;9.152;2022-12-07T05:32:52;1.56;94.78
65972;SHT31;52726;48.852;9.152;2022-12-07T05:35:18;1.53;95.22
65972;SHT31;52726;48.852;9.152;2022-12-07T05:37:45;1.55;95.44
65972;SHT31;52726;48.852;9.152;2022-12-07T05:40:11;1.53;95.46
65972;SHT31;52726;48.852;9.152;2022-12-07T05:42:37;1.55;95.63
65972;SHT31;52726;48.852;9.152;2022-12-07T05:45:03;1.57;95.54
65972;SHT31;52726;48.852;9.152;2022-12-07T05:47:29;1.52;95.46
65972;SHT31;52726;48.852;9.152;2022-12-07T05:49:54;1.53;95.56
65972;SHT31;52726;48.852;9.152;2022-12-07T05:52:20;1.52;95.53
65972;SHT31;52726;48.852;9.152;2022-12-07T05:54:45;1.52;95.56
65972;SHT31;52726;48.852;9.152;2022-12-07T05:57:11;1.52;95.76
65972;SHT31;52726;48.852;9.152;2022-12-07T05:59:36;1.53;95.74
65972;SHT31;52726;48.852;9.152;2022-12-07T06:02:13;1.50;95.60
65972;SHT31;52726;48.852;9.152;2022-12-07T06:04:43;1.52;95.63
65972;SHT31;52726;48.852;9.152;2022-12-07T06:07:10;1.53;95.34
65972;SHT31;52726;48.852;9.152;2022-12-07T06:09:36;1.52;95.03
65972;SHT31;52726;48.852;9.152;2022-12-07T06:12:02;1.56;95.05
65972;SHT31;52726;48.852;9.152;2022-12-07T06:14:47;1.57;95.12
65972;SHT31;52726;48.852;9.152;2022-12-07T06:17:13;1.59;94.57
65972;SHT31;52726;48.852;9.152;2022-12-07T06:19:38;1.60;94.54
65972;SHT31;52726;48.852;9.152;2022-12-07T06:22:04;1.62;94.33
65972;SHT31;52726;48.852;9.152;2022-12-07T06:24:31;1.63;93.93
65972;SHT31;52726;48.852;9.152;2022-12-07T06:26:56;1.63;93.73
65972;SHT31;52726;48.852;9.152;2022-12-07T06:29:22;1.66;93.72
65972;SHT31;52726;48.852;9.152;2022-12-07T06:31:48;1.64;93.17
65972;SHT31;52726;48.852;9.152;2022-12-07T06:34:18;1.66;92.68
65972;SHT31;52726;48.852;9.152;2022-12-07T06:36:44;1.67;91.75
65972;SHT31;52726;48.852;9.152;2022-12-07T06:39:11;1.67;91.05
65972;SHT31;52726;48.852;9.152;2022-12-07T06:41:37;1.67;90.98
65972;SHT31;52726;48.852;9.152;2022-12-07T06:44:04;1.71;90.42
65972;SHT31;52726;48.852;9.152;2022-12-07T06:46:30;1.74;90.08
65972;SHT31;52726;48.852;9.152;2022-12-07T06:48:56;1.77;89.62
65972;SHT31;52726;48.852;9.152;2022-12-07T06:51:22;1.78;89.55
65972;SHT31;52726;48.852;9.152;2022-12-07T06:53:47;1.80;89.04
65972;SHT31;52726;48.852;9.152;2022-12-07T06:56:12;1.83;89.02
65972;SHT31;52726;48.852;9.152;2022-12-07T06:58:39;1.85;88.86
65972;SHT31;52726;48.852;9.152;2022-12-07T07:01:12;1.85;88.78
65972;SHT31;52726;48.852;9.152;2022-12-07T07:03:38;1.84;89.11
65972;SHT31;52726;48.852;9.152;2022-12-07T07:06:04;1.88;88.38
65972;SHT31;52726;48.852;9.152;2022-12-07T07:08:29;1.85;88.28
65972;SHT31;52726;48.852;9.152;2022-12-07T07:10:54;1.85;88.40
65972;SHT31;52726;48.852;9.152;2022-12-07T07:13:20;1.85;88.63
65972;SHT31;52726;48.852;9.152;2022-12-07T07:15:45;1.88;88.39
65972;SHT31;52726;48.852;9.152;2022-12-07T07:18:11;1.91;88.31
65972;SHT31;52726;48.852;9.152;2022-12-07T07:20:37;1.94;88.31
65972;SHT31;52726;48.852;9.152;2022-12-07T07:23:02;1.95;88.05
65972;SHT31;52726;48.852;9.152;2022-12-07T07:25:28;1.97;88.23
65972;SHT31;52726;48.852;9.152;2022-12-07T07:27:53;1.97;87.82
65972;SHT31;52726;48.852;9.152;2022-12-07T07:30:18;2.00;87.67
65972;SHT31;52726;48.852;9.152;2022-12-07T07:32:44;2.01;87.61
65972;SHT31;52726;48.852;9.152;2022-12-07T07:35:09;2.02;87.58
65972;SHT31;52726;48.852;9.152;2022-12-07T07:37:35;2.05;86.51
65972;SHT31;52726;48.852;9.152;2022-12-07T07:40:00;2.07;86.92
65972;SHT31;52726;48.852;9.152;2022-12-07T07:42:25;2.10;87.16
65972;SHT31;52726;48.852;9.152;2022-12-07T07:44:51;2.11;86.97
65972;SHT31;52726;48.852;9.152;2022-12-07T07:47:16;2.12;87.17
65972;SHT31;52726;48.852;9.152;2022-12-07T07:49:41;2.15;86.76
65972;SHT31;52726;48.852;9.152;2022-12-07T07:52:07;2.15;87.55
65972;SHT31;52726;48.852;9.152;2022-12-07T07:54:32;2.18;87.96
65972;SHT31;52726;48.852;9.152;2022-12-07T07:56:58;2.21;87.41
65972;SHT31;52726;48.852;9.152;2022-12-07T07:59:23;2.24;87.98
65972;SHT31;52726;48.852;9.152;2022-12-07T08:01:50;2.26;86.82
65972;SHT31;52726;48.852;9.152;2022-12-07T08:04:15;2.32;87.59
65972;SHT31;52726;48.852;9.152;2022-12-07T08:06:41;2.35;87.49
65972;SHT31;52726;48.852;9.152;2022-12-07T08:09:07;2.38;87.32
65972;SHT31;52726;48.852;9.152;2022-12-07T08:11:33;2.41;86.26
65972;SHT31;52726;48.852;9.152;2022-12-07T08:13:59;2.46;86.84
65972;SHT31;52726;48.852;9.152;2022-12-07T08:16:24;2.49;86.41
65972;SHT31;52726;48.852;9.152;2022-12-07T08:18:50;2.54;86.19
65972;SHT31;52726;48.852;9.152;2022-12-07T08:21:15;2.60;85.50
65972;SHT31;52726;48.852;9.152;2022-12-07T08:23:41;2.63;85.44
65972;SHT31;52726;48.852;9.152;2022-12-07T08:26:12;2.67;86.21
65972;SHT31;52726;48.852;9.152;2022-12-07T08:28:38;2.77;86.11
65972;SHT31;52726;48.852;9.152;2022-12-07T08:31:13;2.77;84.53
65972;SHT31;52726;48.852;9.152;2022-12-07T08:33:39;2.83;85.39
65972;SHT31;52726;48.852;9.152;2022-12-07T08:36:07;2.87;85.28
65972;SHT31;52726;48.852;9.152;2022-12-07T08:38:37;2.93;85.49
65972;SHT31;52726;48.852;9.152;2022-12-07T08:41:03;2.98;85.60
65972;SHT31;52726;48.852;9.152;2022-12-07T08:43:32;3.04;85.52
65972;SHT31;52726;48.852;9.152;2022-12-07T08:46:11;3.04;85.32
65972;SHT31;52726;48.852;9.152;2022-12-07T08:48:41;3.07;84.72
65972;SHT31;52726;48.852;9.152;2022-12-07T08:51:07;3.11;84.51
65972;SHT31;52726;48.852;9.152;2022-12-07T08:53:33;3.11;84.16
65972;SHT31;52726;48.852;9.152;2022-12-07T08:55:59;3.17;84.36
65972;SHT31;52726;48.852;9.152;2022-12-07T08:58:25;3.24;85.05
65972;SHT31;52726;48.852;9.152;2022-12-07T09:00:50;3.28;84.29
65972;SHT31;52726;48.852;9.152;2022-12-07T09:03:16;3.31;83.36
65972;SHT31;52726;48.852;9.152;2022-12-07T09:05:41;3.35;83.11
65972;SHT31;52726;48.852;9.152;2022-12-07T09:08:07;3.46;85.01
65972;SHT31;52726;48.852;9.152;2022-12-07T09:10:33;3.52;84.13
65972;SHT31;52726;48.852;9.152;2022-12-07T09:12:58;3.56;83.22
65972;SHT31;52726;48.852;9.152;2022-12-07T09:15:27;3.62;83.26
65972;SHT31;52726;48.852;9.152;2022-12-07T09:17:53;3.69;83.59
65972;SHT31;52726;48.852;9.152;2022-12-07T09:20:18;3.70;82.72
65972;SHT31;52726;48.852;9.152;2022-12-07T09:22:43;3.73;83.01
65972;SHT31;52726;48.852;9.152;2022-12-07T09:25:09;3.77;82.07
65972;SHT31;52726;48.852;9.152;2022-12-07T09:27:34;3.90;82.81
65972;SHT31;52726;48.852;9.152;2022-12-07T09:30:01;3.91;81.25
65972;SHT31;52726;48.852;9.152;2022-12-07T09:32:26;3.98;82.62
65972;SHT31;52726;48.852;9.152;2022-12-07T09:34:51;3.97;81.11
65972;SHT31;52726;48.852;9.152;2022-12-07T09:37:17;3.97;80.95
65972;SHT31;52726;48.852;9.152;2022-12-07T09:39:42;4.03;81.81
65972;SHT31;52726;48.852;9.152;2022-12-07T09:42:08;4.13;81.77
65972;SHT31;52726;48.852;9.152;2022-12-07T09:44:35;4.14;82.13
65972;SHT31;52726;48.852;9.152;2022-12-07T09:47:01;4.17;81.28
65972;SHT31;52726;48.852;9.152;2022-12-07T09:49:29;4.25;81.44
65972;SHT31;52726;48.852;9.152;2022-12-07T09:54:31;4.13;80.20
65972;SHT31;52726;48.852;9.152;2022-12-07T09:56:59;4.18;81.26
65972;SHT31;52726;48.852;9.152;2022-12-07T09:59:25;4.20;81.28
65972;SHT31;52726;48.852;9.152;2022-12-07T10:01:50;4.20;80.99
65972;SHT31;52726;48.852;9.152;2022-12-07T10:04:19;4.21;81.21
65972;SHT31;52726;48.852;9.152;2022-12-07T10:06:45;4.20;80.63
65972;SHT31;52726;48.852;9.152;2022-12-07T10:09:14;4.18;81.95
65972;SHT31;52726;48.852;9.152;2022-12-07T10:12:09;4.18;80.96
65972;SHT31;52726;48.852;9.152;2022-12-07T10:14:40;4.25;82.07
65972;SHT31;52726;48.852;9.152;2022-12-07T10:17:31;4.30;81.27
65972;SHT31;52726;48.852;9.152;2022-12-07T10:20:28;4.30;82.02
65972;SHT31;52726;48.852;9.152;2022-12-07T10:22:58;4.25;81.66
65972;SHT31;52726;48.852;9.152;2022-12-07T10:25:27;4.22;83.22
65972;SHT31;52726;48.852;9.152;2022-12-07T10:28:02;4.17;83.87
65972;SHT31;52726;48.852;9.152;2022-12-07T10:30:29;4.13;83.86
65972;SHT31;52726;48.852;9.152;2022-12-07T10:32:54;4.14;83.96
65972;SHT31;52726;48.852;9.152;2022-12-07T10:35:28;4.18;84.49
65972;SHT31;52726;48.852;9.152;2022-12-07T10:37:56;4.21;84.80
65972;SHT31;52726;48.852;9.152;2022-12-07T10:40:34;4.13;84.57
65972;SHT31;52726;48.852;9.152;2022-12-07T10:49:22;4.07;86.16
65972;SHT31;52726;48.852;9.152;2022-12-07T10:51:46;4.13;86.35
65972;SHT31;52726;48.852;9.152;2022-12-07T10:57:20;4.10;86.23
65972;SHT31;52726;48.852;9.152;2022-12-07T11:05:47;4.05;86.51
65972;SHT31;52726;48.852;9.152;2022-12-07T11:14:09;4.13;87.14
65972;SHT31;52726;48.852;9.152;2022-12-07T11:16:34;4.15;87.16
65972;SHT31;52726;48.852;9.152;2022-12-07T11:22:03;3.95;88.06
65972;SHT31;52726;48.852;9.152;2022-12-07T11:30:48;3.82;88.40
65972;SHT31;52726;48.852;9.152;2022-12-07T11:33:33;3.83;88.70
65972;SHT31;52726;48.852;9.152;2022-12-07T11:38:50;3.76;88.10
65972;SHT31;52726;48.852;9.152;2022-12-07T11:41:23;3.75;88.50
65972;SHT31;52726;48.852;9.152;2022-12-07T11:44:08;3.83;88.71
65972;SHT31;52726;48.852;9.152;2022-12-07T11:46:51;3.82;87.80
65972;SHT31;52726;48.852;9.152;2022-12-07T11:50:05;3.83;87.73
65972;SHT31;52726;48.852;9.152;2022-12-07T11:52:55;3.87;87.48
65972;SHT31;52726;48.852;9.152;2022-12-07T11:55:26;3.86;87.04
65972;SHT31;52726;48.852;9.152;2022-12-07T11:58:03;3.93;87.44
65972;SHT31;52726;48.852;9.152;2022-12-07T12:00:29;3.91;87.22
65972;SHT31;52726;48.852;9.152;2022-12-07T12:03:09;3.98;87.69
65972;SHT31;52726;48.852;9.152;2022-12-07T12:05:36;3.98;87.23
65972;SHT31;52726;48.852;9.152;2022-12-07T12:08:21;4.01;86.76
65972;SHT31;52726;48.852;9.152;2022-12-07T12:10:58;4.03;87.47
65972;SHT31;52726;48.852;9.152;2022-12-07T12:18:59;4.05;86.93
65972;SHT31;52726;48.852;9.152;2022-12-07T12:21:29;4.07;87.08
65972;SHT31;52726;48.852;9.152;2022-12-07T12:24:00;4.11;86.67
65972;SHT31;52726;48.852;9.152;2022-12-07T12:26:30;4.08;85.67
65972;SHT31;52726;48.852;9.152;2022-12-07T12:28:58;4.10;85.86
65972;SHT31;52726;48.852;9.152;2022-12-07T12:33:55;4.11;85.43
65972;SHT31;52726;48.852;9.152;2022-12-07T13:27:41;3.94;87.39
65972;SHT31;52726;48.852;9.152;2022-12-07T13:30:16;3.91;87.45
65972;SHT31;52726;48.852;9.152;2022-12-07T13:32:43;3.90;87.51
65972;SHT31;52726;48.852;9.152;2022-12-07T13:35:29;3.89;87.98
65972;SHT31;52726;48.852;9.152;2022-12-07T13:37:55;3.89;88.47
65972;SHT31;52726;48.852;9.152;2022-12-07T13:40:22;3.90;88.12
65972;SHT31;52726;48.852;9.152;2022-12-07T13:42:57;3.93;88.30
65972;SHT31;52726;48.852;9.152;2022-12-07T13:45:33;3.97;88.23
65972;SHT31;52726;48.852;9.152;2022-12-07T13:48:42;3.97;87.59
65972;SHT31;52726;48.852;9.152;2022-12-07T13:51:17;4.05;87.51
65972;SHT31;52726;48.852;9.152;2022-12-07T13:53:51;4.07;86.81
65972;SHT31;52726;48.852;9.152;2022-12-07T13:56:16;4.10;86.82
65972;SHT31;52726;48.852;9.152;2022-12-07T13:58:42;4.10;86.74
65972;SHT31;52726;48.852;9.152;2022-12-07T14:01:08;4.15;87.30
65972;SHT31;52726;48.852;9.152;2022-12-07T14:03:34;4.14;87.07
65972;SHT31;52726;48.852;9.152;2022-12-07T14:06:05;4.13;86.95
65972;SHT31;52726;48.852;9.152;2022-12-07T14:08:31;4.17;86.81
65972;SHT31;52726;48.852;9.152;2022-12-07T14:10:57;4.13;86.74
65972;SHT31;52726;48.852;9.152;2022-12-07T14:13:39;4.20;87.15
65972;SHT31;52726;48.852;9.152;2022-12-07T14:16:28;4.13;86.47
65972;SHT31;52726;48.852;9.152;2022-12-07T14:18:55;4.20;87.08
65972;SHT31;52726;48.852;9.152;2022-12-07T14:21:27;4.24;86.47
65972;SHT31;52726;48.852;9.152;2022-12-07T14:26:33;4.07;85.48
65972;SHT31;52726;48.852;9.152;2022-12-07T14:31:52;3.98;86.00
65972;SHT31;52726;48.852;9.152;2022-12-07T14:34:22;3.97;86.38
65972;SHT31;52726;48.852;9.152;2022-12-07T14:36:47;3.91;86.81
65972;SHT31;52726;48.852;9.152;2022-12-07T14:39:13;3.93;86.99
65972;SHT31;52726;48.852;9.152;2022-12-07T14:41:38;3.90;87.84
65972;SHT31;52726;48.852;9.152;2022-12-07T14:44:16;3.84;87.23
65972;SHT31;52726;48.852;9.152;2022-12-07T14:46:42;3.84;87.65
65972;SHT31;52726;48.852;9.152;2022-12-07T14:49:07;3.80;87.90
65972;SHT31;52726;48.852;9.152;2022-12-07T14:51:36;3.77;88.16
65972;SHT31;52726;48.852;9.152;2022-12-07T14:54:04;3.82;88.50
65972;SHT31;52726;48.852;9.152;2022-12-07T14:56:30;3.73;88.38
65972;SHT31;52726;48.852;9.152;2022-12-07T14:58:55;3.73;88.64
65972;SHT31;52726;48.852;9.152;2022-12-07T15:01:21;3.73;88.77
65972;SHT31;52726;48.852;9.152;2022-12-07T15:03:46;3.70;88.49
65972;SHT31;52726;48.852;9.152;2022-12-07T15:06:17;3.67;88.51
65972;SHT31;52726;48.852;9.152;2022-12-07T15:08:43;3.69;88.79
65972;SHT31;52726;48.852;9.152;2022-12-07T15:11:19;3.66;88.47
65972;SHT31;52726;48.852;9.152;2022-12-07T15:13:45;3.62;88.28
65972;SHT31;52726;48.852;9.152;2022-12-07T15:16:29;3.56;88.68
65972;SHT31;52726;48.852;9.152;2022-12-07T15:18:55;3.54;89.16
65972;SHT31;52726;48.852;9.152;2022-12-07T15:21:21;3.54;89.53
65972;SHT31;52726;48.852;9.152;2022-12-07T15:23:47;3.51;89.64
65972;SHT31;52726;48.852;9.152;2022-12-07T15:26:13;3.46;89.50
65972;SHT31;52726;48.852;9.152;2022-12-07T15:28:39;3.40;89.34
65972;SHT31;52726;48.852;9.152;2022-12-07T15:31:14;3.36;89.32
65972;SHT31;52726;48.852;9.152;2022-12-07T15:33:40;3.34;89.51
65972;SHT31;52726;48.852;9.152;2022-12-07T15:36:06;3.34;89.55
65972;SHT31;52726;48.852;9.152;2022-12-07T15:38:31;3.31;89.29
65972;SHT31;52726;48.852;9.152;2022-12-07T15:40:57;3.28;89.35
65972;SHT31;52726;48.852;9.152;2022-12-07T15:43:22;3.22;89.16
65972;SHT31;52726;48.852;9.152;2022-12-07T15:46:06;3.27;89.55
65972;SHT31;52726;48.852;9.152;2022-12-07T15:48:32;3.22;88.93
65972;SHT31;52726;48.852;9.152;2022-12-07T15:51:05;3.18;89.01
65972;SHT31;52726;48.852;9.152;2022-12-07T15:53:31;3.15;88.84
65972;SHT31;52726;48.852;9.152;2022-12-07T15:55:56;3.17;88.83
65972;SHT31;52726;48.852;9.152;2022-12-07T15:58:22;3.12;88.71
65972;SHT31;52726;48.852;9.152;2022-12-07T16:00:47;3.11;88.67
65972;SHT31;52726;48.852;9.152;2022-12-07T16:03:13;3.09;88.51
65972;SHT31;52726;48.852;9.152;2022-12-07T16:05:38;3.08;88.76
65972;SHT31;52726;48.852;9.152;2022-12-07T16:08:04;3.04;88.66
65972;SHT31;52726;48.852;9.152;2022-12-07T16:10:29;2.98;88.87
65972;SHT31;52726;48.852;9.152;2022-12-07T16:12:55;2.96;89.12
65972;SHT31;52726;48.852;9.152;2022-12-07T16:15:20;2.94;89.22
65972;SHT31;52726;48.852;9.152;2022-12-07T16:17:46;2.90;89.52
65972;SHT31;52726;48.852;9.152;2022-12-07T16:20:11;2.87;89.30
65972;SHT31;52726;48.852;9.152;2022-12-07T16:22:36;2.81;89.46
65972;SHT31;52726;48.852;9.152;2022-12-07T16:25:03;2.81;89.69
65972;SHT31;52726;48.852;9.152;2022-12-07T16:27:28;2.76;89.88
65972;SHT31;52726;48.852;9.152;2022-12-07T16:29:53;2.66;90.14
65972;SHT31;52726;48.852;9.152;2022-12-07T16:32:19;2.62;89.70
65972;SHT31;52726;48.852;9.152;2022-12-07T16:34:44;2.57;89.71
65972;SHT31;52726;48.852;9.152;2022-12-07T16:37:09;2.60;89.85
65972;SHT31;52726;48.852;9.152;2022-12-07T16:39:35;2.53;89.93
65972;SHT31;52726;48.852;9.152;2022-12-07T16:42:01;2.49;89.64
65972;SHT31;52726;48.852;9.152;2022-12-07T16:44:26;2.46;89.70
65972;SHT31;52726;48.852;9.152;2022-12-07T16:46:52;2.48;89.56
65972;SHT31;52726;48.852;9.152;2022-12-07T16:49:17;2.45;89.96
65972;SHT31;52726;48.852;9.152;2022-12-07T16:51:44;2.41;90.19
65972;SHT31;52726;48.852;9.152;2022-12-07T16:54:11;2.35;90.27
65972;SHT31;52726;48.852;9.152;2022-12-07T16:56:36;2.32;90.32
65972;SHT31;52726;48.852;9.152;2022-12-07T16:59:02;2.31;90.34
65972;SHT31;52726;48.852;9.152;2022-12-07T17:01:27;2.29;90.51
65972;SHT31;52726;48.852;9.152;2022-12-07T17:03:53;2.26;90.49
65972;SHT31;52726;48.852;9.152;2022-12-07T17:06:21;2.26;90.37
65972;SHT31;52726;48.852;9.152;2022-12-07T17:08:48;2.26;89.97
65972;SHT31;52726;48.852;9.152;2022-12-07T17:11:21;2.32;90.19
65972;SHT31;52726;48.852;9.152;2022-12-07T17:13:47;2.32;90.20
65972;SHT31;52726;48.852;9.152;2022-12-07T17:16:32;2.42;89.23
65972;SHT31;52726;48.852;9.152;2022-12-07T17:18:58;2.48;89.05
65972;SHT31;52726;48.852;9.152;2022-12-07T17:21:23;2.54;88.61
65972;SHT31;52726;48.852;9.152;2022-12-07T17:23:49;2.57;88.63
65972;SHT31;52726;48.852;9.152;2022-12-07T17:26:20;2.60;88.13
65972;SHT31;52726;48.852;9.152;2022-12-07T17:28:46;2.66;87.90
65972;SHT31;52726;48.852;9.152;2022-12-07T17:31:14;2.73;87.63
65972;SHT31;52726;48.852;9.152;2022-12-07T17:33:40;2.75;87.69
65972;SHT31;52726;48.852;9.152;2022-12-07T17:36:12;2.77;88.14
65972;SHT31;52726;48.852;9.152;2022-12-07T17:38:38;2.76;88.44
65972;SHT31;52726;48.852;9.152;2022-12-07T17:41:14;2.76;88.67
65972;SHT31;52726;48.852;9.152;2022-12-07T17:44:00;2.76;88.94
65972;SHT31;52726;48.852;9.152;2022-12-07T17:46:26;2.73;89.15
65972;SHT31;52726;48.852;9.152;2022-12-07T17:48:55;2.73;89.22
65972;SHT31;52726;48.852;9.152;2022-12-07T17:51:20;2.73;89.30
65972;SHT31;52726;48.852;9.152;2022-12-07T17:54:04;2.72;89.50
65972;SHT31;52726;48.852;9.152;2022-12-07T17:56:30;2.70;89.65
65972;SHT31;52726;48.852;9.152;2022-12-07T17:58:55;2.66;89.69